createdAt,value
2019-03-09T00:00:02.772Z,23.14
2019-03-09T00:00:13.780Z,23.14
2019-03-09T00:00:24.778Z,23.09
2019-03-09T00:00:35.899Z,23.11
2019-03-09T00:00:46.792Z,23.08
2019-03-09T00:00:57.797Z,23.03
2019-03-09T00:01:08.793Z,22.99
2019-03-09T00:01:19.869Z,22.99
2019-03-09T00:01:30.794Z,22.91
2019-03-09T00:01:41.790Z,22.92
2019-03-09T00:01:52.780Z,22.89
2019-03-09T00:02:03.794Z,22.88
2019-03-09T00:02:14.778Z,22.89
2019-03-09T00:02:25.781Z,22.88
2019-03-09T00:02:36.795Z,22.85
2019-03-09T00:02:47.815Z,22.8
2019-03-09T00:02:58.795Z,22.78
2019-03-09T00:03:09.863Z,22.78
2019-03-09T00:03:20.796Z,22.78
2019-03-09T00:03:31.786Z,22.68
2019-03-09T00:03:42.783Z,22.69
2019-03-09T00:03:53.781Z,22.67
2019-03-09T00:04:04.781Z,22.59
2019-03-09T00:04:15.793Z,22.55
2019-03-09T00:04:26.785Z,22.54
2019-03-09T00:04:37.800Z,22.45
2019-03-09T00:04:48.798Z,22.37
2019-03-09T00:04:59.805Z,22.32
2019-03-09T00:05:10.865Z,22.32
2019-03-09T00:05:21.801Z,22.3
2019-03-09T00:05:32.793Z,22.21
2019-03-09T00:05:43.787Z,22.22
2019-03-09T00:05:54.783Z,22.16
2019-03-09T00:06:05.784Z,22.08
2019-03-09T00:06:16.784Z,22.03
2019-03-09T00:06:27.804Z,22.08
2019-03-09T00:06:38.804Z,22.02
2019-03-09T00:06:49.801Z,22.01
2019-03-09T00:07:00.819Z,21.9
2019-03-09T00:07:11.856Z,21.9
2019-03-09T00:07:22.783Z,21.77
2019-03-09T00:07:33.788Z,21.77
2019-03-09T00:07:44.785Z,21.8
2019-03-09T00:07:55.783Z,21.83
2019-03-09T00:08:06.788Z,21.79
2019-03-09T00:08:17.796Z,21.78
2019-03-09T00:08:28.806Z,21.81
2019-03-09T00:08:39.799Z,21.75
2019-03-09T00:08:50.800Z,21.77
2019-03-09T00:09:01.858Z,21.77
2019-03-09T00:09:12.785Z,21.79
2019-03-09T00:09:23.793Z,21.81
2019-03-09T00:09:34.785Z,21.85
2019-03-09T00:09:45.786Z,21.86
2019-03-09T00:09:56.786Z,21.83
2019-03-09T00:10:07.785Z,21.81
2019-03-09T00:10:18.803Z,21.86
2019-03-09T00:10:29.801Z,21.89
2019-03-09T00:10:40.804Z,21.94
2019-03-09T00:10:51.801Z,22.01
2019-03-09T00:11:02.789Z,22.08
2019-03-09T00:11:13.850Z,22.08
2019-03-09T00:11:24.805Z,22.16
2019-03-09T00:11:35.795Z,22.22
2019-03-09T00:11:46.788Z,22.28
2019-03-09T00:11:57.793Z,22.35
2019-03-09T00:12:08.793Z,22.41
2019-03-09T00:12:19.809Z,22.46
2019-03-09T00:12:30.808Z,22.5
2019-03-09T00:12:41.816Z,22.54
2019-03-09T00:12:52.795Z,22.58
2019-03-09T00:13:03.793Z,22.62
2019-03-09T00:13:14.812Z,22.65
2019-03-09T00:13:25.875Z,22.65
2019-03-09T00:13:36.813Z,22.69
2019-03-09T00:13:47.804Z,22.73
2019-03-09T00:13:58.800Z,22.77
2019-03-09T00:14:09.797Z,22.8
2019-03-09T00:14:20.809Z,22.84
2019-03-09T00:14:31.816Z,22.87
2019-03-09T00:14:42.802Z,22.9
2019-03-09T00:14:53.795Z,22.93
2019-03-09T00:15:04.814Z,22.99
2019-03-09T00:15:15.875Z,22.99
2019-03-09T00:15:26.817Z,23.04
2019-03-09T00:15:37.803Z,23.06
2019-03-09T00:15:48.800Z,23.09
2019-03-09T00:15:59.796Z,23.11
2019-03-09T00:16:10.818Z,23.14
2019-03-09T00:16:21.814Z,23.16
2019-03-09T00:16:32.797Z,23.19
2019-03-09T00:16:43.801Z,23.21
2019-03-09T00:16:54.798Z,23.23
2019-03-09T00:17:05.824Z,23.24
2019-03-09T00:17:16.814Z,23.26
2019-03-09T00:17:27.880Z,23.26
2019-03-09T00:17:38.815Z,23.27
2019-03-09T00:17:49.806Z,23.29
2019-03-09T00:18:00.819Z,23.31
2019-03-09T00:18:11.822Z,23.32
2019-03-09T00:18:22.804Z,23.33
2019-03-09T00:18:33.800Z,23.35
2019-03-09T00:18:44.828Z,23.36
2019-03-09T00:18:55.975Z,23.38
2019-03-09T00:19:06.814Z,23.4
2019-03-09T00:19:17.820Z,23.41
2019-03-09T00:19:28.882Z,23.41
2019-03-09T00:19:39.822Z,23.42
2019-03-09T00:19:50.804Z,23.43
2019-03-09T00:20:01.882Z,23.44
2019-03-09T00:20:12.807Z,23.46
2019-03-09T00:20:23.805Z,23.47
2019-03-09T00:20:34.806Z,23.48
2019-03-09T00:20:45.809Z,23.49
2019-03-09T00:20:56.824Z,23.5
2019-03-09T00:21:07.822Z,23.51
2019-03-09T00:21:18.822Z,23.52
2019-03-09T00:21:29.886Z,23.52
2019-03-09T00:21:40.822Z,23.53
2019-03-09T00:21:51.819Z,23.54
2019-03-09T00:22:02.836Z,23.54
2019-03-09T00:22:13.811Z,23.55
2019-03-09T00:22:24.808Z,23.56
2019-03-09T00:22:35.804Z,23.56
2019-03-09T00:22:46.815Z,23.58
2019-03-09T00:22:57.821Z,23.59
2019-03-09T00:23:08.823Z,23.6
2019-03-09T00:23:19.823Z,23.62
2019-03-09T00:23:30.824Z,23.63
2019-03-09T00:23:41.887Z,23.63
2019-03-09T00:23:52.806Z,23.64
2019-03-09T00:24:03.849Z,23.64
2019-03-09T00:24:14.811Z,23.65
2019-03-09T00:24:25.808Z,23.65
2019-03-09T00:24:37.039Z,23.66
2019-03-09T00:24:47.854Z,23.66
2019-03-09T00:24:58.828Z,23.66
2019-03-09T00:25:09.829Z,23.66
2019-03-09T00:25:20.845Z,23.67
2019-03-09T00:25:31.848Z,23.67
2019-03-09T00:25:42.881Z,23.67
2019-03-09T00:25:53.831Z,23.68
2019-03-09T00:26:04.820Z,23.68
2019-03-09T00:26:15.817Z,23.68
2019-03-09T00:26:26.811Z,23.7
2019-03-09T00:26:37.814Z,23.71
2019-03-09T00:26:48.832Z,23.71
2019-03-09T00:26:59.829Z,23.72
2019-03-09T00:27:10.832Z,23.73
2019-03-09T00:27:21.830Z,23.72
2019-03-09T00:27:32.823Z,23.72
2019-03-09T00:27:43.828Z,23.73
2019-03-09T00:27:54.889Z,23.73
2019-03-09T00:28:05.837Z,23.74
2019-03-09T00:28:16.823Z,23.74
2019-03-09T00:28:27.815Z,23.75
2019-03-09T00:28:38.814Z,23.75
2019-03-09T00:28:49.834Z,23.74
2019-03-09T00:29:00.849Z,23.75
2019-03-09T00:29:11.835Z,23.75
2019-03-09T00:29:22.816Z,23.75
2019-03-09T00:29:33.815Z,23.75
2019-03-09T00:29:44.839Z,23.76
2019-03-09T00:29:55.894Z,23.76
2019-03-09T00:30:06.835Z,23.78
2019-03-09T00:30:17.825Z,23.79
2019-03-09T00:30:28.821Z,23.79
2019-03-09T00:30:39.818Z,23.79
2019-03-09T00:30:50.839Z,23.8
2019-03-09T00:31:01.832Z,23.8
2019-03-09T00:31:12.817Z,23.81
2019-03-09T00:31:23.820Z,23.8
2019-03-09T00:31:35.208Z,23.81
2019-03-09T00:31:45.836Z,23.82
2019-03-09T00:31:56.837Z,23.83
2019-03-09T00:32:07.899Z,23.83
2019-03-09T00:32:18.838Z,23.83
2019-03-09T00:32:29.830Z,23.84
2019-03-09T00:32:40.820Z,23.84
2019-03-09T00:32:51.835Z,23.84
2019-03-09T00:33:02.828Z,23.84
2019-03-09T00:33:13.822Z,23.84
2019-03-09T00:33:24.824Z,23.85
2019-03-09T00:33:35.832Z,23.86
2019-03-09T00:33:46.842Z,23.86
2019-03-09T00:33:57.847Z,23.85
2019-03-09T00:34:08.838Z,23.86
2019-03-09T00:34:19.904Z,23.86
2019-03-09T00:34:30.842Z,23.86
2019-03-09T00:34:41.833Z,23.85
2019-03-09T00:34:52.826Z,23.85
2019-03-09T00:35:03.827Z,23.86
2019-03-09T00:35:14.825Z,23.86
2019-03-09T00:35:25.824Z,23.86
2019-03-09T00:35:36.829Z,23.86
2019-03-09T00:35:47.843Z,23.86
2019-03-09T00:35:58.845Z,23.87
2019-03-09T00:36:09.843Z,23.87
2019-03-09T00:36:20.841Z,23.87
2019-03-09T00:36:31.908Z,23.87
2019-03-09T00:36:42.829Z,23.86
2019-03-09T00:36:53.834Z,23.87
2019-03-09T00:37:04.832Z,23.88
2019-03-09T00:37:15.827Z,23.87
2019-03-09T00:37:26.832Z,23.87
2019-03-09T00:37:37.829Z,23.88
2019-03-09T00:37:48.849Z,23.87
2019-03-09T00:37:59.844Z,23.86
2019-03-09T00:38:10.839Z,23.86
2019-03-09T00:38:21.847Z,23.86
2019-03-09T00:38:32.898Z,23.86
2019-03-09T00:38:43.850Z,23.86
2019-03-09T00:38:54.838Z,23.87
2019-03-09T00:39:05.830Z,23.87
2019-03-09T00:39:16.833Z,23.85
2019-03-09T00:39:27.832Z,23.85
2019-03-09T00:39:38.850Z,23.84
2019-03-09T00:39:49.846Z,23.84
2019-03-09T00:40:00.865Z,23.84
2019-03-09T00:40:11.845Z,23.85
2019-03-09T00:40:22.844Z,23.84
2019-03-09T00:40:33.851Z,23.83
2019-03-09T00:40:44.911Z,23.83
2019-03-09T00:40:55.849Z,23.83
2019-03-09T00:41:06.844Z,23.83
2019-03-09T00:41:17.837Z,23.84
2019-03-09T00:41:28.834Z,23.83
2019-03-09T00:41:39.848Z,23.82
2019-03-09T00:41:50.853Z,23.82
2019-03-09T00:42:01.849Z,23.82
2019-03-09T00:42:12.834Z,23.82
2019-03-09T00:42:23.836Z,23.82
2019-03-09T00:42:34.852Z,23.81
2019-03-09T00:42:45.915Z,23.81
2019-03-09T00:42:56.854Z,23.8
2019-03-09T00:43:07.849Z,23.81
2019-03-09T00:43:18.837Z,23.8
2019-03-09T00:43:29.837Z,23.8
2019-03-09T00:43:40.852Z,23.8
2019-03-09T00:43:51.854Z,23.8
2019-03-09T00:44:02.841Z,23.8
2019-03-09T00:44:13.837Z,23.8
2019-03-09T00:44:24.841Z,23.8
2019-03-09T00:44:35.853Z,23.79
2019-03-09T00:44:46.861Z,23.79
2019-03-09T00:44:57.846Z,23.78
2019-03-09T00:45:08.840Z,23.79
2019-03-09T00:45:19.841Z,23.78
2019-03-09T00:45:30.856Z,23.78
2019-03-09T00:45:41.852Z,23.76
2019-03-09T00:45:52.842Z,23.76
2019-03-09T00:46:03.845Z,23.75
2019-03-09T00:46:14.839Z,23.75
2019-03-09T00:46:25.854Z,23.75
2019-03-09T00:46:36.859Z,23.75
2019-03-09T00:46:47.922Z,23.75
2019-03-09T00:46:58.857Z,23.75
2019-03-09T00:47:09.853Z,23.75
2019-03-09T00:47:20.848Z,23.75
2019-03-09T00:47:31.861Z,23.75
2019-03-09T00:47:42.841Z,23.74
2019-03-09T00:47:53.843Z,23.74
2019-03-09T00:48:04.844Z,23.74
2019-03-09T00:48:15.847Z,23.74
2019-03-09T00:48:26.860Z,23.74
2019-03-09T00:48:37.860Z,23.75
2019-03-09T00:48:48.866Z,23.75
2019-03-09T00:48:59.920Z,23.75
2019-03-09T00:49:10.864Z,23.75
2019-03-09T00:49:21.852Z,23.74
2019-03-09T00:49:33.011Z,23.74
2019-03-09T00:49:43.845Z,23.75
2019-03-09T00:49:54.843Z,23.75
2019-03-09T00:50:05.849Z,23.74
2019-03-09T00:50:16.864Z,23.73
2019-03-09T00:50:27.861Z,23.72
2019-03-09T00:50:38.867Z,23.71
2019-03-09T00:50:49.927Z,23.71
2019-03-09T00:51:00.882Z,23.71
2019-03-09T00:51:11.855Z,23.7
2019-03-09T00:51:22.847Z,23.69
2019-03-09T00:51:33.847Z,23.69
2019-03-09T00:51:44.847Z,23.7
2019-03-09T00:51:55.850Z,23.69
2019-03-09T00:52:06.857Z,23.69
2019-03-09T00:52:17.865Z,23.68
2019-03-09T00:52:28.865Z,23.67
2019-03-09T00:52:39.863Z,23.66
2019-03-09T00:52:50.868Z,23.66
2019-03-09T00:53:01.927Z,23.66
2019-03-09T00:53:12.848Z,23.66
2019-03-09T00:53:23.859Z,23.66
2019-03-09T00:53:34.853Z,23.66
2019-03-09T00:53:45.854Z,23.65
2019-03-09T00:53:56.855Z,23.64
2019-03-09T00:54:07.854Z,23.64
2019-03-09T00:54:18.873Z,23.63
2019-03-09T00:54:29.865Z,23.64
2019-03-09T00:54:40.867Z,23.64
2019-03-09T00:54:51.870Z,23.65
2019-03-09T00:55:02.864Z,23.65
2019-03-09T00:55:13.863Z,23.64
2019-03-09T00:55:24.856Z,23.63
2019-03-09T00:55:35.862Z,23.63
2019-03-09T00:55:46.853Z,23.63
2019-03-09T00:55:57.851Z,23.63
2019-03-09T00:56:08.876Z,23.61
2019-03-09T00:56:19.868Z,23.61
2019-03-09T00:56:30.869Z,23.61
2019-03-09T00:56:41.870Z,23.6
2019-03-09T00:56:52.862Z,23.59
2019-03-09T00:57:03.923Z,23.59
2019-03-09T00:57:14.873Z,23.58
2019-03-09T00:57:25.867Z,23.57
2019-03-09T00:57:36.857Z,23.57
2019-03-09T00:57:47.864Z,23.57
2019-03-09T00:57:58.858Z,23.56
2019-03-09T00:58:09.873Z,23.55
2019-03-09T00:58:20.875Z,23.54
2019-03-09T00:58:31.873Z,23.54
2019-03-09T00:58:42.857Z,23.54
2019-03-09T00:58:53.878Z,23.52
2019-03-09T00:59:04.937Z,23.52
2019-03-09T00:59:15.877Z,23.53
2019-03-09T00:59:26.878Z,23.53
2019-03-09T00:59:37.863Z,23.54
2019-03-09T00:59:48.860Z,23.54
2019-03-09T00:59:59.873Z,23.53
2019-03-09T01:00:10.877Z,23.53
2019-03-09T01:00:21.878Z,23.52
2019-03-09T01:00:32.864Z,23.52
2019-03-09T01:00:43.859Z,23.52
2019-03-09T01:00:54.882Z,23.51
2019-03-09T01:01:05.875Z,23.5
2019-03-09T01:01:16.879Z,23.5
2019-03-09T01:01:27.871Z,23.48
2019-03-09T01:01:38.861Z,23.47
2019-03-09T01:01:49.864Z,23.47
2019-03-09T01:02:00.899Z,23.46
2019-03-09T01:02:11.880Z,23.45
2019-03-09T01:02:22.866Z,23.44
2019-03-09T01:02:33.865Z,23.44
2019-03-09T01:02:44.863Z,23.43
2019-03-09T01:02:55.878Z,23.43
2019-03-09T01:03:06.887Z,23.43
2019-03-09T01:03:17.940Z,23.43
2019-03-09T01:03:28.886Z,23.43
2019-03-09T01:03:39.874Z,23.43
2019-03-09T01:03:50.868Z,23.44
2019-03-09T01:04:01.881Z,23.43
2019-03-09T01:04:12.863Z,23.44
2019-03-09T01:04:23.869Z,23.44
2019-03-09T01:04:34.865Z,23.44
2019-03-09T01:04:45.867Z,23.44
2019-03-09T01:04:56.881Z,23.44
2019-03-09T01:05:07.884Z,23.44
2019-03-09T01:05:18.887Z,23.43
2019-03-09T01:05:29.941Z,23.43
2019-03-09T01:05:40.883Z,23.42
2019-03-09T01:05:51.880Z,23.41
2019-03-09T01:06:02.871Z,23.4
2019-03-09T01:06:13.872Z,23.39
2019-03-09T01:06:24.871Z,23.4
2019-03-09T01:06:35.870Z,23.38
2019-03-09T01:06:46.871Z,23.38
2019-03-09T01:06:57.888Z,23.36
2019-03-09T01:07:08.884Z,23.36
2019-03-09T01:07:19.890Z,23.36
2019-03-09T01:07:30.884Z,23.36
2019-03-09T01:07:41.947Z,23.36
2019-03-09T01:07:52.872Z,23.37
2019-03-09T01:08:03.879Z,23.36
2019-03-09T01:08:14.874Z,23.36
2019-03-09T01:08:25.872Z,23.35
2019-03-09T01:08:36.874Z,23.34
2019-03-09T01:08:47.872Z,23.34
2019-03-09T01:08:58.887Z,23.32
2019-03-09T01:09:09.892Z,23.31
2019-03-09T01:09:20.892Z,23.31
2019-03-09T01:09:31.887Z,23.3
2019-03-09T01:09:42.874Z,23.29
2019-03-09T01:09:53.939Z,23.29
2019-03-09T01:10:04.895Z,23.28
2019-03-09T01:10:15.876Z,23.26
2019-03-09T01:10:26.878Z,23.24
2019-03-09T01:10:37.877Z,23.24
2019-03-09T01:10:48.879Z,23.24
2019-03-09T01:10:59.890Z,23.23
2019-03-09T01:11:10.892Z,23.23
2019-03-09T01:11:21.899Z,23.24
2019-03-09T01:11:32.877Z,23.23
2019-03-09T01:11:43.876Z,23.22
2019-03-09T01:11:54.891Z,23.23
2019-03-09T01:12:05.953Z,23.23
2019-03-09T01:12:16.893Z,23.23
2019-03-09T01:12:27.892Z,23.22
2019-03-09T01:12:38.880Z,23.22
2019-03-09T01:12:49.880Z,23.22
2019-03-09T01:13:00.916Z,23.2
2019-03-09T01:13:11.898Z,23.19
2019-03-09T01:13:22.887Z,23.2
2019-03-09T01:13:33.880Z,23.2
2019-03-09T01:13:44.879Z,23.2
2019-03-09T01:13:55.896Z,23.19
2019-03-09T01:14:06.894Z,23.2
2019-03-09T01:14:18.643Z,23.2
2019-03-09T01:14:28.901Z,23.2
2019-03-09T01:14:39.893Z,23.18
2019-03-09T01:14:50.901Z,23.18
2019-03-09T01:15:01.895Z,23.17
2019-03-09T01:15:12.884Z,23.17
2019-03-09T01:15:23.882Z,23.16
2019-03-09T01:15:34.885Z,23.14
2019-03-09T01:15:45.896Z,23.13
2019-03-09T01:15:56.903Z,23.12
2019-03-09T01:16:07.960Z,23.12
2019-03-09T01:16:18.899Z,23.1
2019-03-09T01:16:29.894Z,23.1
2019-03-09T01:16:40.882Z,23.09
2019-03-09T01:16:51.906Z,23.08
2019-03-09T01:17:02.884Z,23.09
2019-03-09T01:17:13.883Z,23.1
2019-03-09T01:17:24.890Z,23.1
2019-03-09T01:17:35.882Z,23.1
2019-03-09T01:17:46.901Z,23.11
2019-03-09T01:17:57.899Z,23.12
2019-03-09T01:18:08.965Z,23.12
2019-03-09T01:18:19.906Z,23.12
2019-03-09T01:18:30.892Z,23.12
2019-03-09T01:18:41.903Z,23.1
2019-03-09T01:18:52.886Z,23.09
2019-03-09T01:19:03.888Z,23.06
2019-03-09T01:19:14.889Z,23.06
2019-03-09T01:19:25.891Z,23.05
2019-03-09T01:19:36.909Z,23.05
2019-03-09T01:19:47.900Z,23.03
2019-03-09T01:19:58.906Z,23.04
2019-03-09T01:20:09.965Z,23.04
2019-03-09T01:20:20.907Z,23.05
2019-03-09T01:20:31.900Z,23.04
2019-03-09T01:20:42.893Z,23.04
2019-03-09T01:20:53.890Z,23.05
2019-03-09T01:21:04.891Z,23.03
2019-03-09T01:21:15.889Z,23.03
2019-03-09T01:21:26.891Z,23.02
2019-03-09T01:21:37.911Z,23.01
2019-03-09T01:21:48.907Z,23.01
2019-03-09T01:21:59.906Z,23
2019-03-09T01:22:10.920Z,22.99
2019-03-09T01:22:21.908Z,22.99
2019-03-09T01:22:32.907Z,22.98
2019-03-09T01:22:43.893Z,22.97
2019-03-09T01:22:54.895Z,22.97
2019-03-09T01:23:05.896Z,22.95
2019-03-09T01:23:16.889Z,22.94
2019-03-09T01:23:27.910Z,22.93
2019-03-09T01:23:38.907Z,22.94
2019-03-09T01:23:49.916Z,22.93
2019-03-09T01:24:00.988Z,22.93
2019-03-09T01:24:11.921Z,22.94
2019-03-09T01:24:22.896Z,22.94
2019-03-09T01:24:33.894Z,22.93
2019-03-09T01:24:44.898Z,22.93
2019-03-09T01:24:55.909Z,22.93
2019-03-09T01:25:06.898Z,22.93
2019-03-09T01:25:17.907Z,22.93
2019-03-09T01:25:28.911Z,22.91
2019-03-09T01:25:39.915Z,22.92
2019-03-09T01:25:50.916Z,22.91
2019-03-09T01:26:01.978Z,22.91
2019-03-09T01:26:12.900Z,22.91
2019-03-09T01:26:23.911Z,22.91
2019-03-09T01:26:34.898Z,22.91
2019-03-09T01:26:45.902Z,22.9
2019-03-09T01:26:56.899Z,22.9
2019-03-09T01:27:07.900Z,22.9
2019-03-09T01:27:18.916Z,22.86
2019-03-09T01:27:29.918Z,22.87
2019-03-09T01:27:40.917Z,22.88
2019-03-09T01:27:51.916Z,22.87
2019-03-09T01:28:02.896Z,22.84
2019-03-09T01:28:13.966Z,22.84
2019-03-09T01:28:24.918Z,22.85
2019-03-09T01:28:36.034Z,22.85
2019-03-09T01:28:46.906Z,22.85
2019-03-09T01:28:57.907Z,22.85
2019-03-09T01:29:09.027Z,22.85
2019-03-09T01:29:19.919Z,22.85
2019-03-09T01:29:30.919Z,22.85
2019-03-09T01:29:41.920Z,22.85
2019-03-09T01:29:52.922Z,22.86
2019-03-09T01:30:04.045Z,22.86
2019-03-09T01:30:14.922Z,22.87
2019-03-09T01:30:25.915Z,22.86
2019-03-09T01:30:36.904Z,22.86
2019-03-09T01:30:47.904Z,22.85
2019-03-09T01:30:58.905Z,22.86
2019-03-09T01:31:09.923Z,22.86
2019-03-09T01:31:20.920Z,22.86
2019-03-09T01:31:31.947Z,22.86
2019-03-09T01:31:42.905Z,22.87
2019-03-09T01:31:53.919Z,22.86
2019-03-09T01:32:04.995Z,22.86
2019-03-09T01:32:15.918Z,22.85
2019-03-09T01:32:26.912Z,22.84
2019-03-09T01:32:37.906Z,22.84
2019-03-09T01:32:48.903Z,22.83
2019-03-09T01:32:59.940Z,22.83
2019-03-09T01:33:10.920Z,22.82
2019-03-09T01:33:21.921Z,22.82
2019-03-09T01:33:32.962Z,22.81
2019-03-09T01:33:43.920Z,22.8
2019-03-09T01:33:54.925Z,22.79
2019-03-09T01:34:05.925Z,22.78
2019-03-09T01:34:16.986Z,22.78
2019-03-09T01:34:27.931Z,22.79
2019-03-09T01:34:38.918Z,22.78
2019-03-09T01:34:49.910Z,22.78
2019-03-09T01:35:00.942Z,22.77
2019-03-09T01:35:11.934Z,22.77
2019-03-09T01:35:22.911Z,22.76
2019-03-09T01:35:33.912Z,22.74
2019-03-09T01:35:44.911Z,22.74
2019-03-09T01:35:55.930Z,22.74
2019-03-09T01:36:06.926Z,22.75
2019-03-09T01:36:17.985Z,22.75
2019-03-09T01:36:28.930Z,22.74
2019-03-09T01:36:39.921Z,22.73
2019-03-09T01:36:50.915Z,22.71
2019-03-09T01:37:01.930Z,22.7
2019-03-09T01:37:12.918Z,22.69
2019-03-09T01:37:23.912Z,22.68
2019-03-09T01:37:34.912Z,22.68
2019-03-09T01:37:45.917Z,22.67
2019-03-09T01:37:56.927Z,22.67
2019-03-09T01:38:07.928Z,22.67
2019-03-09T01:38:18.930Z,22.68
2019-03-09T01:38:29.988Z,22.68
2019-03-09T01:38:40.932Z,22.66
2019-03-09T01:38:51.919Z,22.66
2019-03-09T01:39:02.920Z,22.65
2019-03-09T01:39:13.916Z,22.65
2019-03-09T01:39:24.919Z,22.64
2019-03-09T01:39:35.915Z,22.63
2019-03-09T01:39:46.918Z,22.62
2019-03-09T01:39:57.938Z,22.63
2019-03-09T01:40:08.936Z,22.61
2019-03-09T01:40:19.932Z,22.61
2019-03-09T01:40:30.968Z,22.6
2019-03-09T01:40:42.068Z,22.6
2019-03-09T01:40:52.921Z,22.59
2019-03-09T01:41:03.928Z,22.58
2019-03-09T01:41:14.920Z,22.57
2019-03-09T01:41:25.915Z,22.57
2019-03-09T01:41:36.940Z,22.56
2019-03-09T01:41:47.921Z,22.57
2019-03-09T01:41:58.940Z,22.56
2019-03-09T01:42:09.937Z,22.56
2019-03-09T01:42:20.935Z,22.56
2019-03-09T01:42:31.935Z,22.57
2019-03-09T01:42:42.985Z,22.57
2019-03-09T01:42:53.937Z,22.58
2019-03-09T01:43:04.928Z,22.58
2019-03-09T01:43:15.926Z,22.59
2019-03-09T01:43:26.925Z,22.61
2019-03-09T01:43:37.921Z,22.61
2019-03-09T01:43:48.938Z,22.6
2019-03-09T01:43:59.938Z,22.6
2019-03-09T01:44:10.942Z,22.6
2019-03-09T01:44:21.937Z,22.6
2019-03-09T01:44:32.924Z,22.58
2019-03-09T01:44:43.984Z,22.58
2019-03-09T01:44:54.940Z,22.58
2019-03-09T01:45:05.934Z,22.59
2019-03-09T01:45:16.923Z,22.59
2019-03-09T01:45:27.924Z,22.59
2019-03-09T01:45:38.932Z,22.58
2019-03-09T01:45:49.941Z,22.59
2019-03-09T01:46:00.968Z,22.59
2019-03-09T01:46:11.944Z,22.58
2019-03-09T01:46:22.938Z,22.58
2019-03-09T01:46:33.930Z,22.56
2019-03-09T01:46:44.942Z,22.55
2019-03-09T01:46:56.010Z,22.55
2019-03-09T01:47:06.945Z,22.54
2019-03-09T01:47:17.933Z,22.53
2019-03-09T01:47:29.081Z,22.5
2019-03-09T01:47:39.941Z,22.49
2019-03-09T01:47:50.941Z,22.49
2019-03-09T01:48:01.946Z,22.49
2019-03-09T01:48:12.937Z,22.5
2019-03-09T01:48:23.927Z,22.5
2019-03-09T01:48:34.955Z,22.5
2019-03-09T01:48:45.954Z,22.49
2019-03-09T01:48:57.007Z,22.49
2019-03-09T01:49:07.947Z,22.48
2019-03-09T01:49:18.942Z,22.47
2019-03-09T01:49:29.929Z,22.46
2019-03-09T01:49:40.945Z,22.45
2019-03-09T01:49:51.948Z,22.44
2019-03-09T01:50:02.936Z,22.44
2019-03-09T01:50:13.934Z,22.43
2019-03-09T01:50:24.933Z,22.43
2019-03-09T01:50:35.950Z,22.43
2019-03-09T01:50:46.949Z,22.43
2019-03-09T01:50:57.950Z,22.42
2019-03-09T01:51:09.010Z,22.42
2019-03-09T01:51:19.952Z,22.42
2019-03-09T01:51:30.951Z,22.41
2019-03-09T01:51:41.955Z,22.41
2019-03-09T01:51:52.930Z,22.41
2019-03-09T01:52:03.934Z,22.4
2019-03-09T01:52:14.933Z,22.39
2019-03-09T01:52:25.933Z,22.39
2019-03-09T01:52:36.949Z,22.38
2019-03-09T01:52:47.953Z,22.37
2019-03-09T01:52:58.949Z,22.38
2019-03-09T01:53:10.012Z,22.38
2019-03-09T01:53:20.952Z,22.37
2019-03-09T01:53:31.945Z,22.36
2019-03-09T01:53:42.941Z,22.35
2019-03-09T01:53:53.935Z,22.34
2019-03-09T01:54:04.935Z,22.34
2019-03-09T01:54:15.939Z,22.35
2019-03-09T01:54:26.939Z,22.34
2019-03-09T01:54:37.957Z,22.35
2019-03-09T01:54:48.951Z,22.35
2019-03-09T01:54:59.954Z,22.33
2019-03-09T01:55:10.951Z,22.33
2019-03-09T01:55:22.012Z,22.33
2019-03-09T01:55:32.940Z,22.31
2019-03-09T01:55:43.944Z,22.32
2019-03-09T01:55:54.938Z,22.29
2019-03-09T01:56:05.944Z,22.28
2019-03-09T01:56:16.944Z,22.28
2019-03-09T01:56:27.939Z,22.26
2019-03-09T01:56:38.951Z,22.26
2019-03-09T01:56:49.958Z,22.25
2019-03-09T01:57:00.985Z,22.25
2019-03-09T01:57:11.960Z,22.25
2019-03-09T01:57:22.943Z,22.26
2019-03-09T01:57:34.007Z,22.26
2019-03-09T01:57:44.958Z,22.26
2019-03-09T01:57:55.947Z,22.26
2019-03-09T01:58:06.943Z,22.25
2019-03-09T01:58:17.945Z,22.25
2019-03-09T01:58:28.946Z,22.25
2019-03-09T01:58:39.961Z,22.26
2019-03-09T01:58:50.958Z,22.25
2019-03-09T01:59:01.964Z,22.25
2019-03-09T01:59:12.942Z,22.24
2019-03-09T01:59:23.964Z,22.24
2019-03-09T01:59:35.023Z,22.24
2019-03-09T01:59:45.965Z,22.24
2019-03-09T01:59:56.954Z,22.23
2019-03-09T02:00:07.944Z,22.23
2019-03-09T02:00:18.948Z,22.22
2019-03-09T02:00:29.965Z,22.21
2019-03-09T02:00:40.959Z,22.21
2019-03-09T02:00:51.972Z,22.2
2019-03-09T02:01:02.949Z,22.2
2019-03-09T02:01:13.945Z,22.2
2019-03-09T02:01:25.052Z,22.19
2019-03-09T02:01:36.026Z,22.19
2019-03-09T02:01:46.962Z,22.19
2019-03-09T02:01:57.954Z,22.19
2019-03-09T02:02:08.948Z,22.2
2019-03-09T02:02:19.952Z,22.2
2019-03-09T02:02:31.190Z,22.2
2019-03-09T02:02:41.964Z,22.19
2019-03-09T02:02:52.949Z,22.19
2019-03-09T02:03:03.964Z,22.19
2019-03-09T02:03:14.952Z,22.19
2019-03-09T02:03:25.975Z,22.19
2019-03-09T02:03:36.964Z,22.19
2019-03-09T02:03:48.030Z,22.19
2019-03-09T02:03:58.975Z,22.17
2019-03-09T02:04:09.962Z,22.17
2019-03-09T02:04:20.949Z,22.15
2019-03-09T02:04:31.972Z,22.13
2019-03-09T02:04:42.955Z,22.12
2019-03-09T02:04:53.956Z,22.11
2019-03-09T02:05:04.956Z,22.11
2019-03-09T02:05:15.970Z,22.11
2019-03-09T02:05:27.030Z,22.11
2019-03-09T02:05:37.970Z,22.11
2019-03-09T02:05:48.967Z,22.11
2019-03-09T02:05:59.948Z,22.11
2019-03-09T02:06:10.966Z,22.13
2019-03-09T02:06:21.971Z,22.13
2019-03-09T02:06:32.956Z,22.13
2019-03-09T02:06:43.956Z,22.13
2019-03-09T02:06:54.954Z,22.13
2019-03-09T02:07:05.973Z,22.13
2019-03-09T02:07:16.971Z,22.12
2019-03-09T02:07:28.029Z,22.12
2019-03-09T02:07:38.970Z,22.11
2019-03-09T02:07:49.961Z,22.12
2019-03-09T02:08:00.988Z,22.12
2019-03-09T02:08:11.969Z,22.11
2019-03-09T02:08:22.955Z,22.11
2019-03-09T02:08:33.958Z,22.11
2019-03-09T02:08:44.959Z,22.09
2019-03-09T02:08:55.976Z,22.08
2019-03-09T02:09:06.977Z,22.08
2019-03-09T02:09:17.979Z,22.07
2019-03-09T02:09:29.037Z,22.07
2019-03-09T02:09:39.973Z,22.06
2019-03-09T02:09:50.969Z,22.06
2019-03-09T02:10:01.976Z,22.06
2019-03-09T02:10:12.962Z,22.06
2019-03-09T02:10:23.959Z,22.05
2019-03-09T02:10:34.956Z,22.05
2019-03-09T02:10:45.962Z,22.04
2019-03-09T02:10:56.974Z,22.04
2019-03-09T02:11:07.982Z,22.03
2019-03-09T02:11:18.975Z,22.02
2019-03-09T02:11:30.034Z,22.02
2019-03-09T02:11:40.980Z,22.01
2019-03-09T02:11:51.970Z,22.01
2019-03-09T02:12:02.962Z,22.01
2019-03-09T02:12:13.962Z,22.02
2019-03-09T02:12:24.963Z,22.03
2019-03-09T02:12:35.966Z,22.02
2019-03-09T02:12:46.984Z,22.01
2019-03-09T02:12:57.981Z,22.01
2019-03-09T02:13:08.979Z,21.99
2019-03-09T02:13:19.983Z,21.98
2019-03-09T02:13:31.041Z,21.98
2019-03-09T02:13:41.980Z,21.97
2019-03-09T02:13:52.973Z,21.96
2019-03-09T02:14:03.966Z,21.95
2019-03-09T02:14:14.965Z,21.95
2019-03-09T02:14:25.964Z,21.94
2019-03-09T02:14:36.969Z,21.93
2019-03-09T02:14:47.982Z,21.93
2019-03-09T02:14:58.979Z,21.93
2019-03-09T02:15:09.980Z,21.92
2019-03-09T02:15:20.982Z,21.92
2019-03-09T02:15:32.041Z,21.92
2019-03-09T02:15:42.964Z,21.92
2019-03-09T02:15:53.979Z,21.92
2019-03-09T02:16:04.967Z,21.92
2019-03-09T02:16:15.967Z,21.92
2019-03-09T02:16:26.971Z,21.94
2019-03-09T02:16:37.974Z,21.94
2019-03-09T02:16:48.990Z,21.94
2019-03-09T02:16:59.982Z,21.94
2019-03-09T02:17:10.987Z,21.92
2019-03-09T02:17:22.044Z,21.92
2019-03-09T02:17:32.972Z,21.92
2019-03-09T02:17:43.977Z,21.92
2019-03-09T02:17:54.969Z,21.91
2019-03-09T02:18:05.972Z,21.91
2019-03-09T02:18:16.971Z,21.91
2019-03-09T02:18:27.974Z,21.91
2019-03-09T02:18:38.988Z,21.91
2019-03-09T02:18:49.992Z,21.91
2019-03-09T02:19:01.059Z,21.9
2019-03-09T02:19:11.985Z,21.9
2019-03-09T02:19:22.983Z,21.9
2019-03-09T02:19:34.036Z,21.9
2019-03-09T02:19:44.986Z,21.9
2019-03-09T02:19:55.986Z,21.9
2019-03-09T02:20:06.979Z,21.91
2019-03-09T02:20:17.972Z,21.9
2019-03-09T02:20:28.971Z,21.9
2019-03-09T02:20:39.991Z,21.91
2019-03-09T02:20:50.991Z,21.9
2019-03-09T02:21:01.994Z,21.89
2019-03-09T02:21:12.972Z,21.89
2019-03-09T02:21:23.973Z,21.88
2019-03-09T02:21:35.065Z,21.88
2019-03-09T02:21:45.992Z,21.87
2019-03-09T02:21:57.016Z,21.86
2019-03-09T02:22:07.976Z,21.85